PWSweather.com
Personal Weather Stations
Station Observations
ILOMBARD30
LodiIT 26900

LodiIT 26900

Lat: 45.2993, Lon: 9.5207

Elevation: 255

Station Type: Davis Vantege Pro2 Plus 24h

http://www.meteo-iw2gob.it

High Low Average
Temperature 66.8°F19.3°C 40.2°F4.6°C 53.3°F11.8°C
Dew Point 39.9°F4.4°C 32.4°F0.2°C 34.8°F1.6°C
Winds 5.8 mph 9.3 kmh Calm Calm 2.0 mph SSW3.2 kmh SSW
Wind Gusts 6.9 mph11.1 kmh -- 3.0 mph4.8 kmh
Humidity 77% 29% 53%
Pressure 30.43 in1030.5 mb 30.28 in1025.4 mb -
Precipitation 0.00 in0.0 mm - -
Hour Temp Dew Point Humidity Winds Wind Gusts Pressure Precip Precip Rate Daily Precip Total
12:00 AM 45.7°F7.6°C 35.4°F1.9°C 67% 2.3 mph SE3.7 kmh SE 2.3 mph3.7 kmh 30.43 in1030.5 mb - 0.00 in0.0 mm 0.00 in0.0 mm
12:05 AM 45.6°F7.6°C 35.3°F1.8°C 67% 1.2 mph SE1.9 kmh SE 2.3 mph3.7 kmh 30.43 in1030.5 mb - 0.00 in0.0 mm 0.00 in0.0 mm
12:10 AM 45.5°F7.5°C 34.8°F1.6°C 66% 1.2 mph SE1.9 kmh SE 2.3 mph3.7 kmh 30.43 in1030.5 mb - 0.00 in0.0 mm 0.00 in0.0 mm
12:15 AM 45.5°F7.5°C 34.8°F1.6°C 66% 2.3 mph SE3.7 kmh SE 3.5 mph5.6 kmh 30.43 in1030.5 mb - 0.00 in0.0 mm 0.00 in0.0 mm
12:20 AM 45.4°F7.4°C 34.7°F1.5°C 66% 1.2 mph SE1.9 kmh SE 2.3 mph3.7 kmh 30.43 in1030.5 mb - 0.00 in0.0 mm 0.00 in0.0 mm
12:25 AM 45.4°F7.4°C 34.7°F1.5°C 66% 2.3 mph SE3.7 kmh SE 2.3 mph3.7 kmh 30.43 in1030.5 mb - 0.00 in0.0 mm 0.00 in0.0 mm
12:30 AM 45.3°F7.4°C 34.6°F1.4°C 66% 2.3 mph SE3.7 kmh SE 2.3 mph3.7 kmh 30.43 in1030.5 mb - 0.00 in0.0 mm 0.00 in0.0 mm
12:35 AM 45.2°F7.3°C 34.9°F1.6°C 67% 2.3 mph SE3.7 kmh SE 3.5 mph5.6 kmh 30.43 in1030.5 mb - 0.00 in0.0 mm 0.00 in0.0 mm
12:40 AM 45.1°F7.3°C 35.5°F1.9°C 69% 1.2 mph SE1.9 kmh SE 2.3 mph3.7 kmh 30.43 in1030.5 mb - 0.00 in0.0 mm 0.00 in0.0 mm
12:45 AM 44.9°F7.2°C 35.7°F2.1°C 70% 2.3 mph SE3.7 kmh SE 2.3 mph3.7 kmh 30.43 in1030.5 mb - 0.00 in0.0 mm 0.00 in0.0 mm
12:50 AM 44.7°F7.1°C 35.5°F1.9°C 70% 1.2 mph SE1.9 kmh SE 2.3 mph3.7 kmh 30.43 in1030.5 mb - 0.00 in0.0 mm 0.00 in0.0 mm
12:55 AM 44.5°F6.9°C 35.0°F1.7°C 69% 2.3 mph SE3.7 kmh SE 3.5 mph5.6 kmh 30.43 in1030.5 mb - 0.00 in0.0 mm 0.00 in0.0 mm
01:00 AM 44.4°F6.9°C 34.9°F1.6°C 69% 2.3 mph SE3.7 kmh SE 2.3 mph3.7 kmh 30.43 in1030.5 mb - 0.00 in0.0 mm 0.00 in0.0 mm
01:05 AM 44.3°F6.8°C 34.4°F1.3°C 68% 1.2 mph SE1.9 kmh SE 2.3 mph3.7 kmh 30.43 in1030.5 mb - 0.00 in0.0 mm 0.00 in0.0 mm
01:10 AM 44.3°F6.8°C 34.4°F1.3°C 68% 1.2 mph SE1.9 kmh SE 2.3 mph3.7 kmh 30.43 in1030.5 mb - 0.00 in0.0 mm 0.00 in0.0 mm
01:15 AM 44.2°F6.8°C 34.7°F1.5°C 69% Calm Calm 1.2 mph1.9 kmh 30.43 in1030.5 mb - 0.00 in0.0 mm 0.00 in0.0 mm
01:20 AM 44.2°F6.8°C 34.7°F1.5°C 69% 1.2 mph SE1.9 kmh SE 2.3 mph3.7 kmh 30.43 in1030.5 mb - 0.00 in0.0 mm 0.00 in0.0 mm
01:25 AM 44.1°F6.7°C 34.6°F1.4°C 69% 1.2 mph SE1.9 kmh SE 2.3 mph3.7 kmh 30.43 in1030.5 mb - 0.00 in0.0 mm 0.00 in0.0 mm
01:30 AM 44.0°F6.7°C 34.9°F1.6°C 70% 1.2 mph SE1.9 kmh SE 2.3 mph3.7 kmh 30.42 in1030.1 mb - 0.00 in0.0 mm 0.00 in0.0 mm
01:35 AM 43.9°F6.6°C 34.4°F1.3°C 69% 1.2 mph SE1.9 kmh SE 2.3 mph3.7 kmh 30.42 in1030.1 mb - 0.00 in0.0 mm 0.00 in0.0 mm
01:40 AM 43.8°F6.6°C 34.3°F1.3°C 69% 1.2 mph SE1.9 kmh SE 2.3 mph3.7 kmh 30.42 in1030.1 mb - 0.00 in0.0 mm 0.00 in0.0 mm
01:45 AM 43.7°F6.5°C 34.2°F1.2°C 69% 2.3 mph SE3.7 kmh SE 3.5 mph5.6 kmh 30.43 in1030.5 mb - 0.00 in0.0 mm 0.00 in0.0 mm
01:50 AM 43.5°F6.4°C 34.0°F1.1°C 69% 2.3 mph SE3.7 kmh SE 2.3 mph3.7 kmh 30.42 in1030.1 mb - 0.00 in0.0 mm 0.00 in0.0 mm
01:55 AM 43.4°F6.3°C 34.3°F1.3°C 70% 1.2 mph SE1.9 kmh SE 2.3 mph3.7 kmh 30.42 in1030.1 mb - 0.00 in0.0 mm 0.00 in0.0 mm
02:00 AM 43.3°F6.3°C 34.2°F1.2°C 70% 1.2 mph SE1.9 kmh SE 2.3 mph3.7 kmh 30.42 in1030.1 mb - 0.00 in0.0 mm 0.00 in0.0 mm
02:05 AM 43.2°F6.2°C 34.4°F1.3°C 71% 1.2 mph SE1.9 kmh SE 2.3 mph3.7 kmh 30.42 in1030.1 mb - 0.00 in0.0 mm 0.00 in0.0 mm
02:10 AM 43.1°F6.2°C 34.3°F1.3°C 71% Calm Calm -- 30.42 in1030.1 mb - 0.00 in0.0 mm 0.00 in0.0 mm
02:15 AM 42.9°F6.1°C 34.1°F1.2°C 71% Calm Calm -- 30.42 in1030.1 mb - 0.00 in0.0 mm 0.00 in0.0 mm
02:20 AM 42.8°F6.0°C 34.0°F1.1°C 71% Calm Calm -- 30.42 in1030.1 mb - 0.00 in0.0 mm 0.00 in0.0 mm
02:25 AM 42.7°F5.9°C 34.3°F1.3°C 72% Calm Calm -- 30.42 in1030.1 mb - 0.00 in0.0 mm 0.00 in0.0 mm
02:30 AM 42.7°F5.9°C 34.3°F1.3°C 72% Calm Calm -- 30.42 in1030.1 mb - 0.00 in0.0 mm 0.00 in0.0 mm
02:35 AM 42.5°F5.8°C 34.1°F1.2°C 72% Calm Calm -- 30.42 in1030.1 mb - 0.00 in0.0 mm 0.00 in0.0 mm
02:40 AM 42.4°F5.8°C 34.4°F1.3°C 73% Calm Calm -- 30.42 in1030.1 mb - 0.00 in0.0 mm 0.00 in0.0 mm
02:45 AM 42.4°F5.8°C 34.4°F1.3°C 73% Calm Calm -- 30.42 in1030.1 mb - 0.00 in0.0 mm 0.00 in0.0 mm
02:50 AM 42.3°F5.7°C 34.3°F1.3°C 73% Calm Calm -- 30.41 in1029.8 mb - 0.00 in0.0 mm 0.00 in0.0 mm
02:55 AM 42.3°F5.7°C 34.3°F1.3°C 73% Calm Calm -- 30.41 in1029.8 mb - 0.00 in0.0 mm 0.00 in0.0 mm
03:00 AM 42.3°F5.7°C 34.3°F1.3°C 73% Calm Calm -- 30.41 in1029.8 mb - 0.00 in0.0 mm 0.00 in0.0 mm
03:05 AM 42.2°F5.7°C 34.2°F1.2°C 73% Calm Calm -- 30.41 in1029.8 mb - 0.00 in0.0 mm 0.00 in0.0 mm
03:10 AM 42.2°F5.7°C 34.2°F1.2°C 73% Calm Calm -- 30.41 in1029.8 mb - 0.00 in0.0 mm 0.00 in0.0 mm
03:15 AM 42.3°F5.7°C 34.3°F1.3°C 73% Calm Calm -- 30.41 in1029.8 mb - 0.00 in0.0 mm 0.00 in0.0 mm
03:20 AM 42.3°F5.7°C 34.3°F1.3°C 73% Calm Calm -- 30.41 in1029.8 mb - 0.00 in0.0 mm 0.00 in0.0 mm
03:25 AM 42.4°F5.8°C 34.3°F1.3°C 73% Calm Calm -- 30.41 in1029.8 mb - 0.00 in0.0 mm 0.00 in0.0 mm
03:30 AM 42.4°F5.8°C 34.4°F1.3°C 73% 2.3 mph SE3.7 kmh SE 3.5 mph5.6 kmh 30.41 in1029.8 mb - 0.00 in0.0 mm 0.00 in0.0 mm
03:35 AM 42.4°F5.8°C 34.4°F1.3°C 73% 2.3 mph SE3.7 kmh SE 3.5 mph5.6 kmh 30.41 in1029.8 mb - 0.00 in0.0 mm 0.00 in0.0 mm
03:40 AM 42.4°F5.8°C 34.4°F1.3°C 73% 2.3 mph SE3.7 kmh SE 3.5 mph5.6 kmh 30.41 in1029.8 mb - 0.00 in0.0 mm 0.00 in0.0 mm
03:45 AM 42.4°F5.8°C 34.4°F1.3°C 73% 2.3 mph SE3.7 kmh SE 3.5 mph5.6 kmh 30.41 in1029.8 mb - 0.00 in0.0 mm 0.00 in0.0 mm
03:50 AM 42.5°F5.8°C 34.1°F1.2°C 72% 2.3 mph SE3.7 kmh SE 3.5 mph5.6 kmh 30.40 in1029.5 mb - 0.00 in0.0 mm 0.00 in0.0 mm
03:55 AM 42.5°F5.8°C 34.1°F1.2°C 72% 1.2 mph SE1.9 kmh SE 2.3 mph3.7 kmh 30.41 in1029.8 mb - 0.00 in0.0 mm 0.00 in0.0 mm
04:00 AM 42.6°F5.9°C 34.2°F1.2°C 72% 2.3 mph SE3.7 kmh SE 3.5 mph5.6 kmh 30.41 in1029.8 mb - 0.00 in0.0 mm 0.00 in0.0 mm
04:05 AM 42.7°F5.9°C 34.3°F1.3°C 72% 1.2 mph SE1.9 kmh SE 2.3 mph3.7 kmh 30.41 in1029.8 mb - 0.00 in0.0 mm 0.00 in0.0 mm
04:10 AM 42.7°F5.9°C 34.3°F1.3°C 72% 2.3 mph SE3.7 kmh SE 2.3 mph3.7 kmh 30.41 in1029.8 mb - 0.00 in0.0 mm 0.00 in0.0 mm
04:15 AM 42.7°F5.9°C 34.3°F1.3°C 72% 1.2 mph SE1.9 kmh SE 2.3 mph3.7 kmh 30.40 in1029.5 mb - 0.00 in0.0 mm 0.00 in0.0 mm
04:20 AM 42.7°F5.9°C 34.3°F1.3°C 72% 1.2 mph SE1.9 kmh SE 1.2 mph1.9 kmh 30.41 in1029.8 mb - 0.00 in0.0 mm 0.00 in0.0 mm
04:25 AM 42.6°F5.9°C 34.5°F1.4°C 73% 1.2 mph SE1.9 kmh SE 2.3 mph3.7 kmh 30.41 in1029.8 mb - 0.00 in0.0 mm 0.00 in0.0 mm
04:30 AM 42.5°F5.8°C 34.8°F1.6°C 74% Calm Calm 1.2 mph1.9 kmh 30.41 in1029.8 mb - 0.00 in0.0 mm 0.00 in0.0 mm
04:35 AM 42.4°F5.8°C 34.7°F1.5°C 74% Calm Calm -- 30.41 in1029.8 mb - 0.00 in0.0 mm 0.00 in0.0 mm
04:40 AM 42.2°F5.7°C 34.5°F1.4°C 74% Calm Calm -- 30.41 in1029.8 mb - 0.00 in0.0 mm 0.00 in0.0 mm
04:45 AM 42.0°F5.6°C 34.3°F1.3°C 74% Calm Calm -- 30.41 in1029.8 mb - 0.00 in0.0 mm 0.00 in0.0 mm
04:50 AM 41.9°F5.5°C 34.2°F1.2°C 74% Calm Calm 1.2 mph1.9 kmh 30.41 in1029.8 mb - 0.00 in0.0 mm 0.00 in0.0 mm
04:55 AM 41.7°F5.4°C 34.4°F1.3°C 75% 1.2 mph SE1.9 kmh SE 1.2 mph1.9 kmh 30.41 in1029.8 mb - 0.00 in0.0 mm 0.00 in0.0 mm
05:00 AM 41.6°F5.3°C 34.2°F1.2°C 75% 1.2 mph SE1.9 kmh SE 2.3 mph3.7 kmh 30.41 in1029.8 mb - 0.00 in0.0 mm 0.00 in0.0 mm
05:05 AM 41.4°F5.2°C 34.4°F1.3°C 76% 1.2 mph SE1.9 kmh SE 2.3 mph3.7 kmh 30.41 in1029.8 mb - 0.00 in0.0 mm 0.00 in0.0 mm
05:10 AM 41.3°F5.2°C 34.3°F1.3°C 76% 1.2 mph SE1.9 kmh SE 2.3 mph3.7 kmh 30.41 in1029.8 mb - 0.00 in0.0 mm 0.00 in0.0 mm
05:15 AM 41.3°F5.2°C 34.3°F1.3°C 76% 1.2 mph SE1.9 kmh SE 1.2 mph1.9 kmh 30.40 in1029.5 mb - 0.00 in0.0 mm 0.00 in0.0 mm
05:20 AM 41.2°F5.1°C 34.2°F1.2°C 76% Calm Calm -- 30.41 in1029.8 mb - 0.00 in0.0 mm 0.00 in0.0 mm
05:25 AM 41.2°F5.1°C 34.2°F1.2°C 76% 1.2 mph SE1.9 kmh SE 2.3 mph3.7 kmh 30.41 in1029.8 mb - 0.00 in0.0 mm 0.00 in0.0 mm
05:30 AM 41.2°F5.1°C 34.2°F1.2°C 76% 1.2 mph SE1.9 kmh SE 2.3 mph3.7 kmh 30.41 in1029.8 mb - 0.00 in0.0 mm 0.00 in0.0 mm
05:35 AM 41.1°F5.1°C 34.1°F1.2°C 76% 1.2 mph SE1.9 kmh SE 2.3 mph3.7 kmh 30.41 in1029.8 mb - 0.00 in0.0 mm 0.00 in0.0 mm
05:40 AM 41.0°F5.0°C 34.0°F1.1°C 76% 1.2 mph SE1.9 kmh SE 2.3 mph3.7 kmh 30.41 in1029.8 mb - 0.00 in0.0 mm 0.00 in0.0 mm
05:45 AM 40.7°F4.8°C 33.8°F1.0°C 76% Calm Calm 1.2 mph1.9 kmh 30.41 in1029.8 mb - 0.00 in0.0 mm 0.00 in0.0 mm
05:50 AM 40.6°F4.8°C 33.6°F0.9°C 76% 1.2 mph SE1.9 kmh SE 1.2 mph1.9 kmh 30.41 in1029.8 mb - 0.00 in0.0 mm 0.00 in0.0 mm
05:55 AM 40.4°F4.7°C 33.4°F0.8°C 76% Calm Calm -- 30.41 in1029.8 mb - 0.00 in0.0 mm 0.00 in0.0 mm
06:00 AM 40.3°F4.6°C 33.7°F0.9°C 77% Calm Calm 1.2 mph1.9 kmh 30.41 in1029.8 mb - 0.00 in0.0 mm 0.00 in0.0 mm
06:05 AM 40.2°F4.6°C 33.6°F0.9°C 77% 1.2 mph SE1.9 kmh SE 2.3 mph3.7 kmh 30.41 in1029.8 mb - 0.00 in0.0 mm 0.00 in0.0 mm
06:10 AM 40.2°F4.6°C 33.6°F0.9°C 77% 1.2 mph SE1.9 kmh SE 2.3 mph3.7 kmh 30.41 in1029.8 mb - 0.00 in0.0 mm 0.00 in0.0 mm
06:15 AM 40.3°F4.6°C 33.7°F0.9°C 77% 2.3 mph SE3.7 kmh SE 3.5 mph5.6 kmh 30.41 in1029.8 mb - 0.00 in0.0 mm 0.00 in0.0 mm
06:20 AM 40.4°F4.7°C 33.8°F1.0°C 77% 2.3 mph NW3.7 kmh NW 3.5 mph5.6 kmh 30.41 in1029.8 mb - 0.00 in0.0 mm 0.00 in0.0 mm
06:25 AM 40.6°F4.8°C 34.0°F1.1°C 77% 2.3 mph NW3.7 kmh NW 3.5 mph5.6 kmh 30.41 in1029.8 mb - 0.00 in0.0 mm 0.00 in0.0 mm
06:30 AM 40.8°F4.9°C 33.8°F1.0°C 76% 2.3 mph NW3.7 kmh NW 3.5 mph5.6 kmh 30.41 in1029.8 mb - 0.00 in0.0 mm 0.00 in0.0 mm
06:35 AM 41.0°F5.0°C 34.0°F1.1°C 76% 2.3 mph NW3.7 kmh NW 3.5 mph5.6 kmh 30.41 in1029.8 mb - 0.00 in0.0 mm 0.00 in0.0 mm
06:40 AM 41.1°F5.1°C 34.1°F1.2°C 76% 2.3 mph NW3.7 kmh NW 2.3 mph3.7 kmh 30.41 in1029.8 mb - 0.00 in0.0 mm 0.00 in0.0 mm
06:45 AM 41.3°F5.2°C 34.0°F1.1°C 75% 2.3 mph NW3.7 kmh NW 2.3 mph3.7 kmh 30.41 in1029.8 mb - 0.00 in0.0 mm 0.00 in0.0 mm
06:50 AM 41.4°F5.2°C 34.1°F1.2°C 75% 2.3 mph NW3.7 kmh NW 2.3 mph3.7 kmh 30.41 in1029.8 mb - 0.00 in0.0 mm 0.00 in0.0 mm
06:55 AM 41.5°F5.3°C 34.2°F1.2°C 75% 1.2 mph NW1.9 kmh NW 2.3 mph3.7 kmh 30.41 in1029.8 mb - 0.00 in0.0 mm 0.00 in0.0 mm
07:00 AM 41.6°F5.3°C 34.2°F1.2°C 75% 1.2 mph NW1.9 kmh NW 2.3 mph3.7 kmh 30.41 in1029.8 mb - 0.00 in0.0 mm 0.00 in0.0 mm
07:05 AM 41.7°F5.4°C 34.4°F1.3°C 75% 1.2 mph NW1.9 kmh NW 2.3 mph3.7 kmh 30.41 in1029.8 mb - 0.00 in0.0 mm 0.00 in0.0 mm
07:10 AM 41.9°F5.5°C 34.2°F1.2°C 74% 2.3 mph NW3.7 kmh NW 3.5 mph5.6 kmh 30.41 in1029.8 mb - 0.00 in0.0 mm 0.00 in0.0 mm
07:15 AM 42.2°F5.7°C 34.5°F1.4°C 74% 1.2 mph NW1.9 kmh NW 3.5 mph5.6 kmh 30.42 in1030.1 mb - 0.00 in0.0 mm 0.00 in0.0 mm
07:20 AM 42.7°F5.9°C 34.7°F1.5°C 73% 1.2 mph NW1.9 kmh NW 3.5 mph5.6 kmh 30.42 in1030.1 mb - 0.00 in0.0 mm 0.00 in0.0 mm
07:25 AM 43.2°F6.2°C 34.5°F1.4°C 71% 2.3 mph NW3.7 kmh NW 2.3 mph3.7 kmh 30.42 in1030.1 mb - 0.00 in0.0 mm 0.00 in0.0 mm
07:30 AM 43.5°F6.4°C 34.4°F1.3°C 70% 1.2 mph NW1.9 kmh NW 2.3 mph3.7 kmh 30.42 in1030.1 mb - 0.00 in0.0 mm 0.00 in0.0 mm
07:35 AM 43.7°F6.5°C 34.2°F1.2°C 69% 2.3 mph NW3.7 kmh NW 3.5 mph5.6 kmh 30.43 in1030.5 mb - 0.00 in0.0 mm 0.00 in0.0 mm
07:40 AM 43.7°F6.5°C 34.6°F1.4°C 70% 2.3 mph NW3.7 kmh NW 3.5 mph5.6 kmh 30.42 in1030.1 mb - 0.00 in0.0 mm 0.00 in0.0 mm
07:45 AM 44.0°F6.7°C 34.9°F1.6°C 70% 2.3 mph NW3.7 kmh NW 3.5 mph5.6 kmh 30.43 in1030.5 mb - 0.00 in0.0 mm 0.00 in0.0 mm
07:50 AM 44.5°F6.9°C 35.0°F1.7°C 69% 1.2 mph NW1.9 kmh NW 1.2 mph1.9 kmh 30.43 in1030.5 mb - 0.00 in0.0 mm 0.00 in0.0 mm
07:55 AM 45.3°F7.4°C 35.3°F1.8°C 68% 1.2 mph WNW1.9 kmh WNW 3.5 mph5.6 kmh 30.43 in1030.5 mb - 0.00 in0.0 mm 0.00 in0.0 mm
08:00 AM 45.1°F7.3°C 35.5°F1.9°C 69% 3.5 mph WSW5.6 kmh WSW 3.5 mph5.6 kmh 30.43 in1030.5 mb - 0.00 in0.0 mm 0.00 in0.0 mm
08:05 AM 44.4°F6.9°C 35.2°F1.8°C 70% 2.3 mph SW3.7 kmh SW 3.5 mph5.6 kmh 30.43 in1030.5 mb - 0.00 in0.0 mm 0.00 in0.0 mm
08:10 AM 44.6°F7.0°C 35.7°F2.1°C 71% 2.3 mph WSW3.7 kmh WSW 4.6 mph7.4 kmh 30.43 in1030.5 mb - 0.00 in0.0 mm 0.00 in0.0 mm
08:15 AM 44.7°F7.1°C 35.9°F2.2°C 71% 3.5 mph SW5.6 kmh SW 4.6 mph7.4 kmh 30.43 in1030.5 mb - 0.00 in0.0 mm 0.00 in0.0 mm
08:20 AM 44.8°F7.1°C 36.0°F2.2°C 71% 3.5 mph WSW5.6 kmh WSW 3.5 mph5.6 kmh 30.43 in1030.5 mb - 0.00 in0.0 mm 0.00 in0.0 mm
08:25 AM 45.0°F7.2°C 35.8°F2.1°C 70% 4.6 mph WSW7.4 kmh WSW 5.8 mph9.3 kmh 30.43 in1030.5 mb - 0.00 in0.0 mm 0.00 in0.0 mm
08:30 AM 45.1°F7.3°C 35.9°F2.2°C 70% 5.8 mph WSW9.3 kmh WSW 6.9 mph11.1 kmh 30.43 in1030.5 mb - 0.00 in0.0 mm 0.00 in0.0 mm
08:35 AM 45.1°F7.3°C 35.9°F2.2°C 70% 4.6 mph WSW7.4 kmh WSW 5.8 mph9.3 kmh 30.43 in1030.5 mb - 0.00 in0.0 mm 0.00 in0.0 mm
08:40 AM 45.3°F7.4°C 36.4°F2.4°C 71% 4.6 mph WSW7.4 kmh WSW 5.8 mph9.3 kmh 30.43 in1030.5 mb - 0.00 in0.0 mm 0.00 in0.0 mm
08:45 AM 45.5°F7.5°C 36.6°F2.6°C 71% 4.6 mph SW7.4 kmh SW 4.6 mph7.4 kmh 30.42 in1030.1 mb - 0.00 in0.0 mm 0.00 in0.0 mm
08:50 AM 45.7°F7.6°C 36.5°F2.5°C 70% 4.6 mph WSW7.4 kmh WSW 4.6 mph7.4 kmh 30.43 in1030.5 mb - 0.00 in0.0 mm 0.00 in0.0 mm
08:55 AM 46.1°F7.8°C 36.5°F2.5°C 69% 4.6 mph WSW7.4 kmh WSW 4.6 mph7.4 kmh 30.43 in1030.5 mb - 0.00 in0.0 mm 0.00 in0.0 mm
09:00 AM 46.7°F8.2°C 37.1°F2.8°C 69% 4.6 mph SW7.4 kmh SW 6.9 mph11.1 kmh 30.43 in1030.5 mb - 0.00 in0.0 mm 0.00 in0.0 mm
09:05 AM 46.9°F8.3°C 37.7°F3.2°C 70% 3.5 mph SW5.6 kmh SW 3.5 mph5.6 kmh 30.43 in1030.5 mb - 0.00 in0.0 mm 0.00 in0.0 mm
09:10 AM 47.4°F8.6°C 38.1°F3.4°C 70% 3.5 mph WSW5.6 kmh WSW 4.6 mph7.4 kmh 30.43 in1030.5 mb - 0.00 in0.0 mm 0.00 in0.0 mm
09:15 AM 47.8°F8.8°C 38.1°F3.4°C 69% 3.5 mph SW5.6 kmh SW 4.6 mph7.4 kmh 30.43 in1030.5 mb - 0.00 in0.0 mm 0.00 in0.0 mm
09:20 AM 48.1°F8.9°C 38.0°F3.3°C 68% 3.5 mph WSW5.6 kmh WSW 3.5 mph5.6 kmh 30.43 in1030.5 mb - 0.00 in0.0 mm 0.00 in0.0 mm
09:25 AM 48.5°F9.2°C 38.0°F3.3°C 67% 3.5 mph WSW5.6 kmh WSW 4.6 mph7.4 kmh 30.43 in1030.5 mb - 0.00 in0.0 mm 0.00 in0.0 mm
09:30 AM 48.9°F9.4°C 38.0°F3.3°C 66% 3.5 mph SW5.6 kmh SW 4.6 mph7.4 kmh 30.43 in1030.5 mb - 0.00 in0.0 mm 0.00 in0.0 mm
09:35 AM 49.5°F9.7°C 38.2°F3.4°C 65% 4.6 mph SW7.4 kmh SW 5.8 mph9.3 kmh 30.43 in1030.5 mb - 0.00 in0.0 mm 0.00 in0.0 mm
09:40 AM 49.9°F9.9°C 38.6°F3.7°C 65% 3.5 mph WSW5.6 kmh WSW 5.8 mph9.3 kmh 30.43 in1030.5 mb - 0.00 in0.0 mm 0.00 in0.0 mm
09:45 AM 50.3°F10.2°C 39.0°F3.9°C 65% 3.5 mph WSW5.6 kmh WSW 3.5 mph5.6 kmh 30.43 in1030.5 mb - 0.00 in0.0 mm 0.00 in0.0 mm
09:50 AM 50.8°F10.4°C 39.1°F3.9°C 64% 3.5 mph SW5.6 kmh SW 3.5 mph5.6 kmh 30.43 in1030.5 mb - 0.00 in0.0 mm 0.00 in0.0 mm
09:55 AM 51.1°F10.6°C 38.9°F3.8°C 63% 1.2 mph W1.9 kmh W 4.6 mph7.4 kmh 30.43 in1030.5 mb - 0.00 in0.0 mm 0.00 in0.0 mm
10:00 AM 52.1°F11.2°C 39.9°F4.4°C 63% 2.3 mph WSW3.7 kmh WSW 4.6 mph7.4 kmh 30.43 in1030.5 mb - 0.00 in0.0 mm 0.00 in0.0 mm
10:05 AM 52.6°F11.4°C 39.1°F3.9°C 60% 2.3 mph W3.7 kmh W 3.5 mph5.6 kmh 30.43 in1030.5 mb - 0.00 in0.0 mm 0.00 in0.0 mm
10:10 AM 52.9°F11.6°C 39.3°F4.1°C 60% 2.3 mph SW3.7 kmh SW 3.5 mph5.6 kmh 30.43 in1030.5 mb - 0.00 in0.0 mm 0.00 in0.0 mm
10:15 AM 53.2°F11.8°C 38.4°F3.6°C 57% 1.2 mph SW1.9 kmh SW 2.3 mph3.7 kmh 30.43 in1030.5 mb - 0.00 in0.0 mm 0.00 in0.0 mm
10:20 AM 53.6°F12.0°C 39.2°F4.0°C 58% 2.3 mph S3.7 kmh S 3.5 mph5.6 kmh 30.43 in1030.5 mb - 0.00 in0.0 mm 0.00 in0.0 mm
10:25 AM 54.3°F12.4°C 39.4°F4.1°C 57% 1.2 mph SW1.9 kmh SW 3.5 mph5.6 kmh 30.43 in1030.5 mb - 0.00 in0.0 mm 0.00 in0.0 mm
10:30 AM 54.6°F12.6°C 39.2°F4.0°C 56% 2.3 mph WSW3.7 kmh WSW 3.5 mph5.6 kmh 30.43 in1030.5 mb - 0.00 in0.0 mm 0.00 in0.0 mm
10:35 AM 54.8°F12.7°C 38.9°F3.8°C 55% 3.5 mph SW5.6 kmh SW 4.6 mph7.4 kmh 30.42 in1030.1 mb - 0.00 in0.0 mm 0.00 in0.0 mm
10:40 AM 55.3°F12.9°C 38.9°F3.8°C 54% 2.3 mph W3.7 kmh W 3.5 mph5.6 kmh 30.42 in1030.1 mb - 0.00 in0.0 mm 0.00 in0.0 mm
10:45 AM 55.9°F13.3°C 38.5°F3.6°C 52% 3.5 mph NW5.6 kmh NW 5.8 mph9.3 kmh 30.42 in1030.1 mb - 0.00 in0.0 mm 0.00 in0.0 mm
10:50 AM 56.1°F13.4°C 38.2°F3.4°C 51% 1.2 mph WSW1.9 kmh WSW 3.5 mph5.6 kmh 30.42 in1030.1 mb - 0.00 in0.0 mm 0.00 in0.0 mm
10:55 AM 56.4°F13.6°C 38.5°F3.6°C 51% 3.5 mph SW5.6 kmh SW 4.6 mph7.4 kmh 30.42 in1030.1 mb - 0.00 in0.0 mm 0.00 in0.0 mm
11:00 AM 57.3°F14.1°C 38.3°F3.5°C 49% 3.5 mph W5.6 kmh W 4.6 mph7.4 kmh 30.42 in1030.1 mb - 0.00 in0.0 mm 0.00 in0.0 mm
11:05 AM 57.1°F13.9°C 37.0°F2.8°C 47% 4.6 mph WSW7.4 kmh WSW 6.9 mph11.1 kmh 30.42 in1030.1 mb - 0.00 in0.0 mm 0.00 in0.0 mm
11:10 AM 56.8°F13.8°C 37.8°F3.2°C 49% 2.3 mph WSW3.7 kmh WSW 3.5 mph5.6 kmh 30.42 in1030.1 mb - 0.00 in0.0 mm 0.00 in0.0 mm
11:15 AM 57.8°F14.3°C 38.3°F3.5°C 48% 4.6 mph SW7.4 kmh SW 5.8 mph9.3 kmh 30.41 in1029.8 mb - 0.00 in0.0 mm 0.00 in0.0 mm
11:20 AM 57.7°F14.3°C 36.4°F2.4°C 45% 4.6 mph WSW7.4 kmh WSW 4.6 mph7.4 kmh 30.41 in1029.8 mb - 0.00 in0.0 mm 0.00 in0.0 mm
11:25 AM 57.9°F14.4°C 36.6°F2.6°C 45% 4.6 mph SW7.4 kmh SW 6.9 mph11.1 kmh 30.41 in1029.8 mb - 0.00 in0.0 mm 0.00 in0.0 mm
11:30 AM 58.2°F14.6°C 36.9°F2.7°C 45% 2.3 mph SW3.7 kmh SW 3.5 mph5.6 kmh 30.41 in1029.8 mb - 0.00 in0.0 mm 0.00 in0.0 mm
11:35 AM 58.5°F14.7°C 35.5°F1.9°C 42% 4.6 mph WSW7.4 kmh WSW 3.5 mph5.6 kmh 30.41 in1029.8 mb - 0.00 in0.0 mm 0.00 in0.0 mm
11:40 AM 58.8°F14.9°C 36.4°F2.4°C 43% 1.2 mph WSW1.9 kmh WSW 3.5 mph5.6 kmh 30.41 in1029.8 mb - 0.00 in0.0 mm 0.00 in0.0 mm
11:45 AM 58.9°F14.9°C 37.0°F2.8°C 44% 3.5 mph SSE5.6 kmh SSE 4.6 mph7.4 kmh 30.41 in1029.8 mb - 0.00 in0.0 mm 0.00 in0.0 mm
11:50 AM 59.5°F15.3°C 37.6°F3.1°C 44% 3.5 mph W5.6 kmh W 3.5 mph5.6 kmh 30.40 in1029.5 mb - 0.00 in0.0 mm 0.00 in0.0 mm
11:55 AM 59.6°F15.3°C 37.1°F2.8°C 43% 4.6 mph NNW7.4 kmh NNW 4.6 mph7.4 kmh 30.40 in1029.5 mb - 0.00 in0.0 mm 0.00 in0.0 mm
12:00 PM 59.9°F15.5°C 37.3°F2.9°C 43% 3.5 mph W5.6 kmh W 3.5 mph5.6 kmh 30.40 in1029.5 mb - 0.00 in0.0 mm 0.00 in0.0 mm
12:05 PM 60.2°F15.7°C 36.4°F2.4°C 41% Calm Calm 1.2 mph1.9 kmh 30.40 in1029.5 mb - 0.00 in0.0 mm 0.00 in0.0 mm
12:10 PM 60.8°F16.0°C 36.3°F2.4°C 40% 2.3 mph WSW3.7 kmh WSW 3.5 mph5.6 kmh 30.40 in1029.5 mb - 0.00 in0.0 mm 0.00 in0.0 mm
12:15 PM 61.0°F16.1°C 35.8°F2.1°C 39% 2.3 mph WSW3.7 kmh WSW 3.5 mph5.6 kmh 30.40 in1029.5 mb - 0.00 in0.0 mm 0.00 in0.0 mm
12:20 PM 60.9°F16.1°C 34.5°F1.4°C 37% 1.2 mph N1.9 kmh N 2.3 mph3.7 kmh 30.39 in1029.1 mb - 0.00 in0.0 mm 0.00 in0.0 mm
12:25 PM 61.2°F16.2°C 35.4°F1.9°C 38% 4.6 mph SW7.4 kmh SW 5.8 mph9.3 kmh 30.39 in1029.1 mb - 0.00 in0.0 mm 0.00 in0.0 mm
12:30 PM 61.4°F16.3°C 34.2°F1.2°C 36% 1.2 mph SW1.9 kmh SW 4.6 mph7.4 kmh 30.39 in1029.1 mb - 0.00 in0.0 mm 0.00 in0.0 mm
12:35 PM 61.7°F16.5°C 34.5°F1.4°C 36% 2.3 mph SW3.7 kmh SW 3.5 mph5.6 kmh 30.39 in1029.1 mb - 0.00 in0.0 mm 0.00 in0.0 mm
12:40 PM 61.8°F16.6°C 34.5°F1.4°C 36% 1.2 mph WSW1.9 kmh WSW 5.8 mph9.3 kmh 30.39 in1029.1 mb - 0.00 in0.0 mm 0.00 in0.0 mm
12:45 PM 62.3°F16.8°C 35.0°F1.7°C 36% 4.6 mph SW7.4 kmh SW 4.6 mph7.4 kmh 30.38 in1028.8 mb - 0.00 in0.0 mm 0.00 in0.0 mm
12:50 PM 62.9°F17.2°C 33.3°F0.7°C 33% 2.3 mph SW3.7 kmh SW 2.3 mph3.7 kmh 30.38 in1028.8 mb - 0.00 in0.0 mm 0.00 in0.0 mm
12:55 PM 62.7°F17.1°C 33.2°F0.7°C 33% 1.2 mph SE1.9 kmh SE 2.3 mph3.7 kmh 30.38 in1028.8 mb - 0.00 in0.0 mm 0.00 in0.0 mm
01:00 PM 63.1°F17.3°C 34.9°F1.6°C 35% 1.2 mph SSW1.9 kmh SSW 3.5 mph5.6 kmh 30.38 in1028.8 mb - 0.00 in0.0 mm 0.00 in0.0 mm
01:05 PM 63.5°F17.5°C 34.6°F1.4°C 34% 2.3 mph S3.7 kmh S 3.5 mph5.6 kmh 30.38 in1028.8 mb - 0.00 in0.0 mm 0.00 in0.0 mm
01:10 PM 63.3°F17.4°C 35.2°F1.8°C 35% 3.5 mph WNW5.6 kmh WNW 4.6 mph7.4 kmh 30.37 in1028.4 mb - 0.00 in0.0 mm 0.00 in0.0 mm
01:15 PM 63.5°F17.5°C 35.3°F1.8°C 35% 2.3 mph W3.7 kmh W 2.3 mph3.7 kmh 30.37 in1028.4 mb - 0.00 in0.0 mm 0.00 in0.0 mm
01:20 PM 63.9°F17.7°C 34.9°F1.6°C 34% 1.2 mph SW1.9 kmh SW 1.2 mph1.9 kmh 30.37 in1028.4 mb - 0.00 in0.0 mm 0.00 in0.0 mm
01:25 PM 63.9°F17.7°C 34.2°F1.2°C 33% 4.6 mph S7.4 kmh S 4.6 mph7.4 kmh 30.37 in1028.4 mb - 0.00 in0.0 mm 0.00 in0.0 mm
01:30 PM 63.2°F17.3°C 34.4°F1.3°C 34% 2.3 mph S3.7 kmh S 3.5 mph5.6 kmh 30.37 in1028.4 mb - 0.00 in0.0 mm 0.00 in0.0 mm
01:35 PM 63.1°F17.3°C 34.3°F1.3°C 34% 1.2 mph SE1.9 kmh SE 2.3 mph3.7 kmh 30.36 in1028.1 mb - 0.00 in0.0 mm 0.00 in0.0 mm
01:40 PM 63.7°F17.6°C 34.8°F1.6°C 34% 1.2 mph SE1.9 kmh SE 3.5 mph5.6 kmh 30.36 in1028.1 mb - 0.00 in0.0 mm 0.00 in0.0 mm
01:45 PM 64.0°F17.8°C 35.0°F1.7°C 34% 3.5 mph NW5.6 kmh NW 3.5 mph5.6 kmh 30.35 in1027.8 mb - 0.00 in0.0 mm 0.00 in0.0 mm
01:50 PM 63.8°F17.7°C 34.9°F1.6°C 34% 2.3 mph NW3.7 kmh NW 2.3 mph3.7 kmh 30.35 in1027.8 mb - 0.00 in0.0 mm 0.00 in0.0 mm
01:55 PM 64.4°F18.0°C 35.4°F1.9°C 34% 2.3 mph SSW3.7 kmh SSW 2.3 mph3.7 kmh 30.35 in1027.8 mb - 0.00 in0.0 mm 0.00 in0.0 mm
02:00 PM 64.9°F18.3°C 35.1°F1.7°C 33% 2.3 mph SW3.7 kmh SW 2.3 mph3.7 kmh 30.35 in1027.8 mb - 0.00 in0.0 mm 0.00 in0.0 mm
02:05 PM 64.9°F18.3°C 35.1°F1.7°C 33% 2.3 mph S3.7 kmh S 3.5 mph5.6 kmh 30.35 in1027.8 mb - 0.00 in0.0 mm 0.00 in0.0 mm
02:10 PM 64.8°F18.2°C 35.8°F2.1°C 34% 2.3 mph SW3.7 kmh SW 3.5 mph5.6 kmh 30.34 in1027.4 mb - 0.00 in0.0 mm 0.00 in0.0 mm
02:15 PM 65.1°F18.4°C 35.3°F1.8°C 33% 3.5 mph WSW5.6 kmh WSW 6.9 mph11.1 kmh 30.34 in1027.4 mb - 0.00 in0.0 mm 0.00 in0.0 mm
02:20 PM 65.6°F18.7°C 34.9°F1.6°C 32% 2.3 mph WSW3.7 kmh WSW 3.5 mph5.6 kmh 30.34 in1027.4 mb - 0.00 in0.0 mm 0.00 in0.0 mm
02:25 PM 65.4°F18.6°C 35.5°F1.9°C 33% Calm Calm 2.3 mph3.7 kmh 30.34 in1027.4 mb - 0.00 in0.0 mm 0.00 in0.0 mm
02:30 PM 65.9°F18.8°C 36.0°F2.2°C 33% 3.5 mph NNW5.6 kmh NNW 3.5 mph5.6 kmh 30.34 in1027.4 mb - 0.00 in0.0 mm 0.00 in0.0 mm
02:35 PM 65.3°F18.5°C 35.5°F1.9°C 33% 3.5 mph W5.6 kmh W 3.5 mph5.6 kmh 30.34 in1027.4 mb - 0.00 in0.0 mm 0.00 in0.0 mm
02:40 PM 65.5°F18.6°C 34.8°F1.6°C 32% Calm Calm 3.5 mph5.6 kmh 30.33 in1027.1 mb - 0.00 in0.0 mm 0.00 in0.0 mm
02:45 PM 66.6°F19.2°C 35.8°F2.1°C 32% 2.3 mph SSE3.7 kmh SSE 2.3 mph3.7 kmh 30.33 in1027.1 mb - 0.00 in0.0 mm 0.00 in0.0 mm
02:50 PM 66.6°F19.2°C 35.0°F1.7°C 31% 1.2 mph SSE1.9 kmh SSE 3.5 mph5.6 kmh 30.33 in1027.1 mb - 0.00 in0.0 mm 0.00 in0.0 mm
02:55 PM 65.6°F18.7°C 33.3°F0.7°C 30% 1.2 mph SSE1.9 kmh SSE 2.3 mph3.7 kmh 30.33 in1027.1 mb - 0.00 in0.0 mm 0.00 in0.0 mm
03:00 PM 66.3°F19.1°C 34.8°F1.6°C 31% 1.2 mph SSE1.9 kmh SSE 2.3 mph3.7 kmh 30.33 in1027.1 mb - 0.00 in0.0 mm 0.00 in0.0 mm
03:05 PM 65.9°F18.8°C 33.5°F0.8°C 30% 3.5 mph SE5.6 kmh SE 4.6 mph7.4 kmh 30.33 in1027.1 mb - 0.00 in0.0 mm 0.00 in0.0 mm
03:10 PM 65.6°F18.7°C 33.3°F0.7°C 30% 2.3 mph SE3.7 kmh SE 3.5 mph5.6 kmh 30.33 in1027.1 mb - 0.00 in0.0 mm 0.00 in0.0 mm
03:15 PM 66.2°F19.0°C 33.8°F1.0°C 30% 3.5 mph E5.6 kmh E 4.6 mph7.4 kmh 30.32 in1026.8 mb - 0.00 in0.0 mm 0.00 in0.0 mm
03:20 PM 66.4°F19.1°C 33.1°F0.6°C 29% 4.6 mph ESE7.4 kmh ESE 6.9 mph11.1 kmh 30.32 in1026.8 mb - 0.00 in0.0 mm 0.00 in0.0 mm
03:25 PM 65.5°F18.6°C 32.4°F0.2°C 29% 2.3 mph ESE3.7 kmh ESE 3.5 mph5.6 kmh 30.32 in1026.8 mb - 0.00 in0.0 mm 0.00 in0.0 mm
03:30 PM 66.1°F18.9°C 32.9°F0.5°C 29% Calm Calm -- 30.32 in1026.8 mb - 0.00 in0.0 mm 0.00 in0.0 mm
03:35 PM 66.2°F19.0°C 33.0°F0.6°C 29% 1.2 mph E1.9 kmh E 1.2 mph1.9 kmh 30.31 in1026.4 mb - 0.00 in0.0 mm 0.00 in0.0 mm
03:40 PM 66.6°F19.2°C 34.2°F1.2°C 30% 5.8 mph SE9.3 kmh SE 4.6 mph7.4 kmh 30.31 in1026.4 mb - 0.00 in0.0 mm 0.00 in0.0 mm
03:45 PM 66.0°F18.9°C 32.8°F0.4°C 29% 2.3 mph ESE3.7 kmh ESE 3.5 mph5.6 kmh 30.31 in1026.4 mb - 0.00 in0.0 mm 0.00 in0.0 mm
03:50 PM 66.0°F18.9°C 32.8°F0.4°C 29% 1.2 mph ESE1.9 kmh ESE 2.3 mph3.7 kmh 30.30 in1026.1 mb - 0.00 in0.0 mm 0.00 in0.0 mm
03:55 PM 66.1°F18.9°C 32.9°F0.5°C 29% 1.2 mph SE1.9 kmh SE 2.3 mph3.7 kmh 30.30 in1026.1 mb - 0.00 in0.0 mm 0.00 in0.0 mm
04:00 PM 66.2°F19.0°C 33.0°F0.6°C 29% 2.3 mph SSE3.7 kmh SSE 2.3 mph3.7 kmh 30.30 in1026.1 mb - 0.00 in0.0 mm 0.00 in0.0 mm
04:05 PM 66.4°F19.1°C 33.2°F0.7°C 29% 3.5 mph SE5.6 kmh SE 4.6 mph7.4 kmh 30.30 in1026.1 mb - 0.00 in0.0 mm 0.00 in0.0 mm
04:10 PM 66.4°F19.1°C 34.0°F1.1°C 30% 1.2 mph SE1.9 kmh SE 3.5 mph5.6 kmh 30.30 in1026.1 mb - 0.00 in0.0 mm 0.00 in0.0 mm
04:15 PM 66.4°F19.1°C 34.0°F1.1°C 30% 1.2 mph SE1.9 kmh SE 3.5 mph5.6 kmh 30.30 in1026.1 mb - 0.00 in0.0 mm 0.00 in0.0 mm
04:20 PM 66.8°F19.3°C 34.3°F1.3°C 30% 2.3 mph SSE3.7 kmh SSE 3.5 mph5.6 kmh 30.29 in1025.7 mb - 0.00 in0.0 mm 0.00 in0.0 mm
04:25 PM 66.8°F19.3°C 35.2°F1.8°C 31% 2.3 mph S3.7 kmh S 5.8 mph9.3 kmh 30.29 in1025.7 mb - 0.00 in0.0 mm 0.00 in0.0 mm
04:30 PM 66.8°F19.3°C 34.3°F1.3°C 30% 4.6 mph SSW7.4 kmh SSW 5.8 mph9.3 kmh 30.30 in1026.1 mb - 0.00 in0.0 mm 0.00 in0.0 mm
04:35 PM 66.5°F19.2°C 34.1°F1.2°C 30% 4.6 mph SE7.4 kmh SE 4.6 mph7.4 kmh 30.30 in1026.1 mb - 0.00 in0.0 mm 0.00 in0.0 mm
04:40 PM 66.4°F19.1°C 34.0°F1.1°C 30% 2.3 mph S3.7 kmh S 4.6 mph7.4 kmh 30.29 in1025.7 mb - 0.00 in0.0 mm 0.00 in0.0 mm
04:45 PM 66.1°F18.9°C 33.7°F0.9°C 30% 3.5 mph SSE5.6 kmh SSE 3.5 mph5.6 kmh 30.30 in1026.1 mb - 0.00 in0.0 mm 0.00 in0.0 mm
04:50 PM 66.0°F18.9°C 33.7°F0.9°C 30% 1.2 mph S1.9 kmh S 3.5 mph5.6 kmh 30.29 in1025.7 mb - 0.00 in0.0 mm 0.00 in0.0 mm
04:55 PM 65.9°F18.8°C 32.7°F0.4°C 29% 1.2 mph S1.9 kmh S 3.5 mph5.6 kmh 30.29 in1025.7 mb - 0.00 in0.0 mm 0.00 in0.0 mm
05:00 PM 65.9°F18.8°C 32.7°F0.4°C 29% 2.3 mph SSW3.7 kmh SSW 3.5 mph5.6 kmh 30.29 in1025.7 mb - 0.00 in0.0 mm 0.00 in0.0 mm
05:05 PM 65.7°F18.7°C 32.5°F0.3°C 29% 3.5 mph SW5.6 kmh SW 4.6 mph7.4 kmh 30.29 in1025.7 mb - 0.00 in0.0 mm 0.00 in0.0 mm
05:10 PM 65.5°F18.6°C 33.2°F0.7°C 30% 3.5 mph S5.6 kmh S 4.6 mph7.4 kmh 30.29 in1025.7 mb - 0.00 in0.0 mm 0.00 in0.0 mm
05:15 PM 65.4°F18.6°C 33.1°F0.6°C 30% 1.2 mph SW1.9 kmh SW 2.3 mph3.7 kmh 30.29 in1025.7 mb - 0.00 in0.0 mm 0.00 in0.0 mm
05:20 PM 65.6°F18.7°C 33.3°F0.7°C 30% 2.3 mph SSW3.7 kmh SSW 3.5 mph5.6 kmh 30.29 in1025.7 mb - 0.00 in0.0 mm 0.00 in0.0 mm
05:25 PM 65.7°F18.7°C 33.4°F0.8°C 30% 2.3 mph SSW3.7 kmh SSW 3.5 mph5.6 kmh 30.29 in1025.7 mb - 0.00 in0.0 mm 0.00 in0.0 mm
05:30 PM 65.5°F18.6°C 32.4°F0.2°C 29% 2.3 mph S3.7 kmh S 3.5 mph5.6 kmh 30.29 in1025.7 mb - 0.00 in0.0 mm 0.00 in0.0 mm
05:35 PM 65.4°F18.6°C 33.1°F0.6°C 30% 2.3 mph S3.7 kmh S 3.5 mph5.6 kmh 30.29 in1025.7 mb - 0.00 in0.0 mm 0.00 in0.0 mm
05:40 PM 65.3°F18.5°C 33.0°F0.6°C 30% 2.3 mph S3.7 kmh S 3.5 mph5.6 kmh 30.29 in1025.7 mb - 0.00 in0.0 mm 0.00 in0.0 mm
05:45 PM 65.2°F18.4°C 33.0°F0.6°C 30% 3.5 mph SSW5.6 kmh SSW 4.6 mph7.4 kmh 30.29 in1025.7 mb - 0.00 in0.0 mm 0.00 in0.0 mm
05:50 PM 64.9°F18.3°C 34.3°F1.3°C 32% 2.3 mph S3.7 kmh S 3.5 mph5.6 kmh 30.29 in1025.7 mb - 0.00 in0.0 mm 0.00 in0.0 mm
05:55 PM 64.7°F18.2°C 34.2°F1.2°C 32% 1.2 mph SSW1.9 kmh SSW 3.5 mph5.6 kmh 30.29 in1025.7 mb - 0.00 in0.0 mm 0.00 in0.0 mm
06:00 PM 64.5°F18.1°C 34.7°F1.5°C 33% 1.2 mph S1.9 kmh S 2.3 mph3.7 kmh 30.29 in1025.7 mb - 0.00 in0.0 mm 0.00 in0.0 mm
06:05 PM 64.3°F17.9°C 34.6°F1.4°C 33% 1.2 mph S1.9 kmh S 2.3 mph3.7 kmh 30.29 in1025.7 mb - 0.00 in0.0 mm 0.00 in0.0 mm
06:10 PM 64.1°F17.8°C 34.4°F1.3°C 33% 1.2 mph S1.9 kmh S 2.3 mph3.7 kmh 30.29 in1025.7 mb - 0.00 in0.0 mm 0.00 in0.0 mm
06:15 PM 63.9°F17.7°C 34.2°F1.2°C 33% 2.3 mph SSE3.7 kmh SSE 2.3 mph3.7 kmh 30.29 in1025.7 mb - 0.00 in0.0 mm 0.00 in0.0 mm
06:20 PM 63.6°F17.6°C 33.9°F1.1°C 33% 2.3 mph SSE3.7 kmh SSE 3.5 mph5.6 kmh 30.29 in1025.7 mb - 0.00 in0.0 mm 0.00 in0.0 mm
06:25 PM 63.3°F17.4°C 33.7°F0.9°C 33% 1.2 mph SSE1.9 kmh SSE 2.3 mph3.7 kmh 30.28 in1025.4 mb - 0.00 in0.0 mm 0.00 in0.0 mm
06:30 PM 63.1°F17.3°C 34.3°F1.3°C 34% 1.2 mph SSE1.9 kmh SSE 1.2 mph1.9 kmh 30.29 in1025.7 mb - 0.00 in0.0 mm 0.00 in0.0 mm
06:35 PM 62.9°F17.2°C 34.1°F1.2°C 34% 1.2 mph SSE1.9 kmh SSE 2.3 mph3.7 kmh 30.29 in1025.7 mb - 0.00 in0.0 mm 0.00 in0.0 mm
06:40 PM 62.7°F17.1°C 33.9°F1.1°C 34% 1.2 mph SSE1.9 kmh SSE 1.2 mph1.9 kmh 30.29 in1025.7 mb - 0.00 in0.0 mm 0.00 in0.0 mm
06:45 PM 62.5°F16.9°C 33.7°F0.9°C 34% 1.2 mph SSE1.9 kmh SSE 1.2 mph1.9 kmh 30.29 in1025.7 mb - 0.00 in0.0 mm 0.00 in0.0 mm
06:50 PM 62.3°F16.8°C 33.6°F0.9°C 34% Calm Calm 1.2 mph1.9 kmh 30.29 in1025.7 mb - 0.00 in0.0 mm 0.00 in0.0 mm
06:55 PM 62.1°F16.7°C 33.4°F0.8°C 34% 1.2 mph SSE1.9 kmh SSE 2.3 mph3.7 kmh 30.28 in1025.4 mb - 0.00 in0.0 mm 0.00 in0.0 mm
07:00 PM 61.8°F16.6°C 33.8°F1.0°C 35% 1.2 mph SSE1.9 kmh SSE 1.2 mph1.9 kmh 30.29 in1025.7 mb - 0.00 in0.0 mm 0.00 in0.0 mm
07:05 PM 61.4°F16.3°C 33.4°F0.8°C 35% 1.2 mph SSE1.9 kmh SSE 2.3 mph3.7 kmh 30.29 in1025.7 mb - 0.00 in0.0 mm 0.00 in0.0 mm
07:10 PM 60.9°F16.1°C 33.1°F0.6°C 35% 2.3 mph SSE3.7 kmh SSE 3.5 mph5.6 kmh 30.29 in1025.7 mb - 0.00 in0.0 mm 0.00 in0.0 mm
07:15 PM 60.7°F15.9°C 33.6°F0.9°C 36% 2.3 mph SSE3.7 kmh SSE 3.5 mph5.6 kmh 30.30 in1026.1 mb - 0.00 in0.0 mm 0.00 in0.0 mm
07:20 PM 60.5°F15.8°C 33.4°F0.8°C 36% 2.3 mph SSE3.7 kmh SSE 3.5 mph5.6 kmh 30.30 in1026.1 mb - 0.00 in0.0 mm 0.00 in0.0 mm
07:25 PM 60.3°F15.7°C 33.2°F0.7°C 36% 3.5 mph SE5.6 kmh SE 3.5 mph5.6 kmh 30.30 in1026.1 mb - 0.00 in0.0 mm 0.00 in0.0 mm
07:30 PM 60.0°F15.6°C 34.3°F1.3°C 38% 2.3 mph SSE3.7 kmh SSE 3.5 mph5.6 kmh 30.30 in1026.1 mb - 0.00 in0.0 mm 0.00 in0.0 mm
07:35 PM 59.8°F15.4°C 34.1°F1.2°C 38% 1.2 mph SSE1.9 kmh SSE 1.2 mph1.9 kmh 30.29 in1025.7 mb - 0.00 in0.0 mm 0.00 in0.0 mm
07:40 PM 59.6°F15.3°C 33.9°F1.1°C 38% 1.2 mph SSE1.9 kmh SSE 2.3 mph3.7 kmh 30.29 in1025.7 mb - 0.00 in0.0 mm 0.00 in0.0 mm
07:45 PM 59.5°F15.3°C 33.9°F1.1°C 38% 1.2 mph SSE1.9 kmh SSE 2.3 mph3.7 kmh 30.30 in1026.1 mb - 0.00 in0.0 mm 0.00 in0.0 mm
07:50 PM 59.3°F15.2°C 34.3°F1.3°C 39% 1.2 mph SSE1.9 kmh SSE 2.3 mph3.7 kmh 30.29 in1025.7 mb - 0.00 in0.0 mm 0.00 in0.0 mm
07:55 PM 59.1°F15.1°C 33.5°F0.8°C 38% 1.2 mph SSE1.9 kmh SSE 3.5 mph5.6 kmh 30.30 in1026.1 mb - 0.00 in0.0 mm 0.00 in0.0 mm
08:00 PM 58.9°F14.9°C 34.0°F1.1°C 39% 2.3 mph SSE3.7 kmh SSE 3.5 mph5.6 kmh 30.30 in1026.1 mb - 0.00 in0.0 mm 0.00 in0.0 mm
08:05 PM 58.8°F14.9°C 33.9°F1.1°C 39% 1.2 mph SSE1.9 kmh SSE 2.3 mph3.7 kmh 30.29 in1025.7 mb - 0.00 in0.0 mm 0.00 in0.0 mm
08:10 PM 58.7°F14.8°C 33.8°F1.0°C 39% 1.2 mph SSE1.9 kmh SSE 2.3 mph3.7 kmh 30.30 in1026.1 mb - 0.00 in0.0 mm 0.00 in0.0 mm
08:15 PM 58.6°F14.8°C 33.7°F0.9°C 39% 1.2 mph SSE1.9 kmh SSE 2.3 mph3.7 kmh 30.30 in1026.1 mb - 0.00 in0.0 mm 0.00 in0.0 mm
08:20 PM 58.5°F14.7°C 34.2°F1.2°C 40% 2.3 mph SSE3.7 kmh SSE 3.5 mph5.6 kmh 30.30 in1026.1 mb - 0.00 in0.0 mm 0.00 in0.0 mm
08:25 PM 58.4°F14.7°C 34.2°F1.2°C 40% 2.3 mph SSE3.7 kmh SSE 3.5 mph5.6 kmh 30.30 in1026.1 mb - 0.00 in0.0 mm 0.00 in0.0 mm
08:30 PM 58.2°F14.6°C 34.0°F1.1°C 40% 2.3 mph SSE3.7 kmh SSE 3.5 mph5.6 kmh 30.30 in1026.1 mb - 0.00 in0.0 mm 0.00 in0.0 mm
08:35 PM 58.1°F14.5°C 33.9°F1.1°C 40% 2.3 mph SSE3.7 kmh SSE 3.5 mph5.6 kmh 30.30 in1026.1 mb - 0.00 in0.0 mm 0.00 in0.0 mm
08:40 PM 57.9°F14.4°C 33.7°F0.9°C 40% 2.3 mph SSE3.7 kmh SSE 3.5 mph5.6 kmh 30.30 in1026.1 mb - 0.00 in0.0 mm 0.00 in0.0 mm
08:45 PM 57.7°F14.3°C 34.1°F1.2°C 41% 2.3 mph SSE3.7 kmh SSE 3.5 mph5.6 kmh 30.30 in1026.1 mb - 0.00 in0.0 mm 0.00 in0.0 mm
08:50 PM 57.5°F14.2°C 34.0°F1.1°C 41% 2.3 mph SSE3.7 kmh SSE 3.5 mph5.6 kmh 30.30 in1026.1 mb - 0.00 in0.0 mm 0.00 in0.0 mm
08:55 PM 57.4°F14.1°C 33.9°F1.1°C 41% 3.5 mph S5.6 kmh S 3.5 mph5.6 kmh 30.30 in1026.1 mb - 0.00 in0.0 mm 0.00 in0.0 mm
09:00 PM 57.2°F14.0°C 33.7°F0.9°C 41% 2.3 mph S3.7 kmh S 3.5 mph5.6 kmh 30.30 in1026.1 mb - 0.00 in0.0 mm 0.00 in0.0 mm
09:05 PM 57.0°F13.9°C 34.1°F1.2°C 42% 2.3 mph S3.7 kmh S 3.5 mph5.6 kmh 30.30 in1026.1 mb - 0.00 in0.0 mm 0.00 in0.0 mm
09:10 PM 56.9°F13.8°C 34.0°F1.1°C 42% 2.3 mph SSW3.7 kmh SSW 2.3 mph3.7 kmh 30.30 in1026.1 mb - 0.00 in0.0 mm 0.00 in0.0 mm
09:15 PM 56.7°F13.7°C 33.8°F1.0°C 42% 2.3 mph SSW3.7 kmh SSW 3.5 mph5.6 kmh 30.30 in1026.1 mb - 0.00 in0.0 mm 0.00 in0.0 mm
09:20 PM 56.5°F13.6°C 33.6°F0.9°C 42% 2.3 mph SSW3.7 kmh SSW 3.5 mph5.6 kmh 30.30 in1026.1 mb - 0.00 in0.0 mm 0.00 in0.0 mm
09:25 PM 56.2°F13.4°C 33.4°F0.8°C 42% 2.3 mph S3.7 kmh S 3.5 mph5.6 kmh 30.30 in1026.1 mb - 0.00 in0.0 mm 0.00 in0.0 mm
09:30 PM 56.0°F13.3°C 33.2°F0.7°C 42% 2.3 mph S3.7 kmh S 2.3 mph3.7 kmh 30.30 in1026.1 mb - 0.00 in0.0 mm 0.00 in0.0 mm
09:35 PM 55.9°F13.3°C 33.7°F0.9°C 43% 1.2 mph S1.9 kmh S 2.3 mph3.7 kmh 30.30 in1026.1 mb - 0.00 in0.0 mm 0.00 in0.0 mm
09:40 PM 55.9°F13.3°C 33.7°F0.9°C 43% 1.2 mph S1.9 kmh S 2.3 mph3.7 kmh 30.30 in1026.1 mb - 0.00 in0.0 mm 0.00 in0.0 mm
09:45 PM 55.8°F13.2°C 33.6°F0.9°C 43% 1.2 mph S1.9 kmh S 3.5 mph5.6 kmh 30.30 in1026.1 mb - 0.00 in0.0 mm 0.00 in0.0 mm
09:50 PM 55.7°F13.2°C 33.5°F0.8°C 43% 1.2 mph S1.9 kmh S 2.3 mph3.7 kmh 30.30 in1026.1 mb - 0.00 in0.0 mm 0.00 in0.0 mm
09:55 PM 55.6°F13.1°C 33.4°F0.8°C 43% 1.2 mph S1.9 kmh S 2.3 mph3.7 kmh 30.31 in1026.4 mb - 0.00 in0.0 mm 0.00 in0.0 mm
10:00 PM 55.4°F13.0°C 33.9°F1.1°C 44% 2.3 mph S3.7 kmh S 2.3 mph3.7 kmh 30.31 in1026.4 mb - 0.00 in0.0 mm 0.00 in0.0 mm
10:05 PM 55.3°F12.9°C 33.8°F1.0°C 44% 1.2 mph S1.9 kmh S 2.3 mph3.7 kmh 30.31 in1026.4 mb - 0.00 in0.0 mm 0.00 in0.0 mm
10:10 PM 55.3°F12.9°C 33.7°F0.9°C 44% 1.2 mph S1.9 kmh S 2.3 mph3.7 kmh 30.31 in1026.4 mb - 0.00 in0.0 mm 0.00 in0.0 mm
10:15 PM 55.2°F12.9°C 34.2°F1.2°C 45% Calm Calm 1.2 mph1.9 kmh 30.30 in1026.1 mb - 0.00 in0.0 mm 0.00 in0.0 mm
10:20 PM 55.1°F12.8°C 33.6°F0.9°C 44% Calm Calm -- 30.30 in1026.1 mb - 0.00 in0.0 mm 0.00 in0.0 mm
10:25 PM 55.0°F12.8°C 34.0°F1.1°C 45% Calm Calm -- 30.30 in1026.1 mb - 0.00 in0.0 mm 0.00 in0.0 mm
10:30 PM 54.8°F12.7°C 33.9°F1.1°C 45% Calm Calm -- 30.30 in1026.1 mb - 0.00 in0.0 mm 0.00 in0.0 mm
10:35 PM 54.6°F12.6°C 34.2°F1.2°C 46% Calm Calm 1.2 mph1.9 kmh 30.30 in1026.1 mb - 0.00 in0.0 mm 0.00 in0.0 mm
10:40 PM 54.2°F12.3°C 34.4°F1.3°C 47% Calm Calm 1.2 mph1.9 kmh 30.31 in1026.4 mb - 0.00 in0.0 mm 0.00 in0.0 mm
10:45 PM 53.7°F12.1°C 34.0°F1.1°C 47% Calm Calm -- 30.31 in1026.4 mb - 0.00 in0.0 mm 0.00 in0.0 mm
10:50 PM 53.3°F11.8°C 33.5°F0.8°C 47% Calm Calm -- 30.31 in1026.4 mb - 0.00 in0.0 mm 0.00 in0.0 mm
10:55 PM 52.9°F11.6°C 34.2°F1.2°C 49% 2.3 mph S3.7 kmh S 3.5 mph5.6 kmh 30.31 in1026.4 mb - 0.00 in0.0 mm 0.00 in0.0 mm
11:00 PM 52.5°F11.4°C 35.9°F2.2°C 53% 2.3 mph S3.7 kmh S 3.5 mph5.6 kmh 30.31 in1026.4 mb - 0.00 in0.0 mm 0.00 in0.0 mm
11:05 PM 52.1°F11.2°C 36.9°F2.7°C 56% 2.3 mph WNW3.7 kmh WNW 3.5 mph5.6 kmh 30.31 in1026.4 mb - 0.00 in0.0 mm 0.00 in0.0 mm
11:10 PM 51.4°F10.8°C 34.8°F1.6°C 53% 1.2 mph WNW1.9 kmh WNW 2.3 mph3.7 kmh 30.31 in1026.4 mb - 0.00 in0.0 mm 0.00 in0.0 mm
11:15 PM 50.9°F10.5°C 34.8°F1.6°C 54% 2.3 mph WNW3.7 kmh WNW 3.5 mph5.6 kmh 30.31 in1026.4 mb - 0.00 in0.0 mm 0.00 in0.0 mm
11:20 PM 50.5°F10.3°C 34.9°F1.6°C 55% 2.3 mph WNW3.7 kmh WNW 3.5 mph5.6 kmh 30.31 in1026.4 mb - 0.00 in0.0 mm 0.00 in0.0 mm
11:25 PM 50.2°F10.1°C 34.6°F1.4°C 55% 1.2 mph WNW1.9 kmh WNW 2.3 mph3.7 kmh 30.31 in1026.4 mb - 0.00 in0.0 mm 0.00 in0.0 mm
11:30 PM 50.0°F10.0°C 34.9°F1.6°C 56% 2.3 mph WNW3.7 kmh WNW 2.3 mph3.7 kmh 30.31 in1026.4 mb - 0.00 in0.0 mm 0.00 in0.0 mm
11:35 PM 50.0°F10.0°C 35.4°F1.9°C 57% 1.2 mph WNW1.9 kmh WNW 2.3 mph3.7 kmh 30.30 in1026.1 mb - 0.00 in0.0 mm 0.00 in0.0 mm
11:40 PM 49.9°F9.9°C 35.3°F1.8°C 57% 1.2 mph WNW1.9 kmh WNW 1.2 mph1.9 kmh 30.30 in1026.1 mb - 0.00 in0.0 mm 0.00 in0.0 mm
11:45 PM 49.9°F9.9°C 34.8°F1.6°C 56% 1.2 mph WNW1.9 kmh WNW 1.2 mph1.9 kmh 30.30 in1026.1 mb - 0.00 in0.0 mm 0.00 in0.0 mm
11:50 PM 49.9°F9.9°C 34.8°F1.6°C 56% 1.2 mph WNW1.9 kmh WNW 2.3 mph3.7 kmh 30.30 in1026.1 mb - 0.00 in0.0 mm 0.00 in0.0 mm
11:55 PM 49.9°F9.9°C 34.8°F1.6°C 56% 2.3 mph WNW3.7 kmh WNW 3.5 mph5.6 kmh 30.30 in1026.1 mb - 0.00 in0.0 mm 0.00 in0.0 mm